Terminal Aerodrome Forecast
Issued by NWS

Home | Current Version | Previous Version | Graphics & Text | Print | Product List | Glossary On
Versions: 1 2 3 4 5 6 7 8 9 10 11 12 13 14 15 16 17 18 19 20 21 22 23 24 25 26 27 28
000
FTUS43 KLOT 171727
TAFMDW
TAF
KMDW 171727Z 1718/1818 31008KT P6SM FEW040 BKN250
     FM172000 33009KT P6SM SCT020 BKN040
     FM180600 02007KT P6SM SCT180 BKN250
     FM181400 06006KT P6SM SCT120 BKN250=

USA.gov is the U.S. government's official web portal to all federal, state and local government web resources and services.